Time;durP1;ratioP1;P1;durP2;ratioP2;P2;SDS_P1;SDS_P2;PMS_P1;PMS_P2;Temp;Humidity;BMP_temperature;BMP_pressure;BME280_temperature;BME280_humidity;BME280_pressure;Samples;Min_cycle;Max_cycle;Signal;HPM_P1;HPM_P2
2021/01/31 00:01:15;;;;;;;8.50;3.77;;;;;;;;;;10338356;28;20337;-70
2021/01/31 00:06:18;;;;;;;6.57;3.17;;;;;;;;;;10357013;28;20293;-70
2021/01/31 00:11:20;;;;;;;5.57;2.70;;;;;;;;;;10339133;28;20297;-70
2021/01/31 00:16:23;;;;;;;8.30;3.63;;;;;;;;;;10362577;28;20226;-70
2021/01/31 00:21:25;;;;;;;9.33;3.37;;;;;;;;;;10359256;28;20264;-69
2021/01/31 00:26:26;;;;;;;7.40;2.97;;;;;;;;;;10354008;28;20223;-70
2021/01/31 00:31:29;;;;;;;14.30;5.13;;;;;;;;;;10359921;28;20281;-69
2021/01/31 00:36:30;;;;;;;13.90;5.60;;;;;;;;;;10353812;28;20832;-69
2021/01/31 00:41:32;;;;;;;8.90;4.17;;;;;;;;;;10364235;28;20292;-70
2021/01/31 00:46:35;;;;;;;13.27;5.57;;;;;;;;;;10366423;28;20281;-70
2021/01/31 00:51:37;;;;;;;10.93;5.33;;;;;;;;;;10365932;28;20237;-71
2021/01/31 00:56:38;;;;;;;9.73;4.90;;;;;;;;;;10363054;28;20195;-69
2021/01/31 01:01:41;;;;;;;8.17;4.57;;;;;;;;;;10365867;28;20300;-69
2021/01/31 01:06:42;;;;;;;9.27;5.27;;;;;;;;;;10364362;28;20214;-70
2021/01/31 01:11:44;;;;;;;9.17;5.07;;;;;;;;;;10370411;28;20242;-71
2021/01/31 01:16:46;;;;;;;12.23;6.33;;;;;;;;;;10367407;28;20282;-71
2021/01/31 01:21:48;;;;;;;13.00;7.23;;;;;;;;;;10363734;28;20293;-70
2021/01/31 01:26:49;;;;;;;12.10;6.77;;;;;;;;;;10339513;28;20214;-71
2021/01/31 01:31:52;;;;;;;12.43;6.97;;;;;;;;;;10348880;28;20717;-72
2021/01/31 01:36:53;;;;;;;10.03;5.90;;;;;;;;;;10360164;28;20194;-70
2021/01/31 01:41:55;;;;;;;10.03;5.93;;;;;;;;;;10367510;28;20240;-70
2021/01/31 01:46:59;;;;;;;11.33;6.67;;;;;;;;;;10348418;28;20534;-69
2021/01/31 01:52:04;;;;;;;10.10;6.30;;;;;;;;;;10350164;28;20722;-68
2021/01/31 01:57:07;;;;;;;11.67;6.90;;;;;;;;;;10352790;28;20570;-70
2021/01/31 02:02:13;;;;;;;12.00;7.23;;;;;;;;;;10366202;28;20312;-70
2021/01/31 02:07:15;;;;;;;11.77;7.00;;;;;;;;;;10367379;28;20245;-70
2021/01/31 02:12:17;;;;;;;14.30;8.00;;;;;;;;;;10362779;28;20230;-71
2021/01/31 02:17:22;;;;;;;11.30;6.83;;;;;;;;;;10366968;28;20248;-71
2021/01/31 02:22:45;;;;;;;11.50;7.30;;;;;;;;;;10361322;28;20253;-70
2021/01/31 02:28:04;;;;;;;10.73;6.60;;;;;;;;;;10360683;28;20572;-71
2021/01/31 02:33:18;;;;;;;11.70;7.30;;;;;;;;;;10362398;28;20210;-70
2021/01/31 02:38:23;;;;;;;11.27;6.93;;;;;;;;;;10365512;28;20231;-70
2021/01/31 02:43:29;;;;;;;12.03;7.13;;;;;;;;;;10365317;28;20207;-69
2021/01/31 02:48:34;;;;;;;11.47;6.80;;;;;;;;;;10359663;28;20224;-71
2021/01/31 02:53:38;;;;;;;10.30;6.60;;;;;;;;;;10336661;28;20703;-71
2021/01/31 02:58:42;;;;;;;11.33;7.33;;;;;;;;;;10361685;28;20280;-70
2021/01/31 03:03:45;;;;;;;12.23;7.67;;;;;;;;;;10358595;28;20593;-70
2021/01/31 03:08:48;;;;;;;11.97;7.30;;;;;;;;;;10360541;28;20370;-70
2021/01/31 03:13:52;;;;;;;12.30;6.87;;;;;;;;;;10360775;28;20289;-70
2021/01/31 03:18:58;;;;;;;11.03;7.20;;;;;;;;;;10365376;28;20621;-70
2021/01/31 03:24:06;;;;;;;11.27;6.93;;;;;;;;;;10334405;28;20222;-69
2021/01/31 03:29:07;;;;;;;10.30;5.97;;;;;;;;;;10355679;28;20208;-70
2021/01/31 03:34:12;;;;;;;12.00;7.03;;;;;;;;;;10350170;28;20222;-69
2021/01/31 03:39:14;;;;;;;12.77;6.97;;;;;;;;;;10366823;28;20253;-71
2021/01/31 03:44:16;;;;;;;11.27;7.10;;;;;;;;;;10367733;28;20299;-71
2021/01/31 03:49:23;;;;;;;12.57;7.83;;;;;;;;;;10366641;28;20362;-71
2021/01/31 03:54:25;;;;;;;12.60;7.77;;;;;;;;;;10342158;28;20299;-71
2021/01/31 03:59:29;;;;;;;13.30;7.63;;;;;;;;;;10361411;28;20277;-72
2021/01/31 04:04:35;;;;;;;12.60;7.67;;;;;;;;;;10341805;28;20273;-71
2021/01/31 04:09:37;;;;;;;12.67;8.00;;;;;;;;;;10360163;28;20194;-70
2021/01/31 05:04:15;;;;;;;13.40;7.97;;;;;;;;;;10367670;28;20230;-71
2021/01/31 05:09:18;;;;;;;14.80;8.20;;;;;;;;;;10370027;28;20236;-70
2021/01/31 05:14:30;;;;;;;14.10;8.43;;;;;;;;;;10343393;28;20273;-71
2021/01/31 05:19:33;;;;;;;12.50;8.00;;;;;;;;;;10366420;28;20693;-70
2021/01/31 05:24:35;;;;;;;14.73;8.53;;;;;;;;;;10360089;28;20241;-70
2021/01/31 05:29:38;;;;;;;15.43;8.73;;;;;;;;;;10372116;28;20220;-70
2021/01/31 05:34:41;;;;;;;13.43;7.73;;;;;;;;;;10368149;28;20233;-72
2021/01/31 05:39:43;;;;;;;15.70;8.80;;;;;;;;;;10359945;28;20751;-71
2021/01/31 05:44:56;;;;;;;13.13;8.13;;;;;;;;;;10365045;28;20250;-71
2021/01/31 05:49:58;;;;;;;14.83;8.13;;;;;;;;;;10365945;28;20234;-70
2021/01/31 05:55:00;;;;;;;14.43;8.77;;;;;;;;;;10361393;28;20701;-69
2021/01/31 06:00:15;;;;;;;14.03;8.43;;;;;;;;;;10347918;28;20233;-69
2021/01/31 06:05:17;;;;;;;13.67;7.93;;;;;;;;;;10367916;28;20583;-73
2021/01/31 06:10:19;;;;;;;14.67;8.33;;;;;;;;;;10364058;28;20234;-69
2021/01/31 06:15:25;;;;;;;14.20;8.10;;;;;;;;;;10361252;28;20724;-71
2021/01/31 06:20:30;;;;;;;14.00;7.97;;;;;;;;;;10361516;28;20225;-69
2021/01/31 06:25:36;;;;;;;14.10;8.17;;;;;;;;;;10357190;28;20215;-69
2021/01/31 06:30:42;;;;;;;12.97;7.60;;;;;;;;;;10364221;28;20249;-69
2021/01/31 06:35:44;;;;;;;13.73;7.40;;;;;;;;;;10374284;28;20285;-71
2021/01/31 06:40:54;;;;;;;14.43;7.10;;;;;;;;;;10363378;28;20222;-71
2021/01/31 06:45:59;;;;;;;15.00;8.30;;;;;;;;;;10362931;28;20317;-71
2021/01/31 06:51:18;;;;;;;13.60;7.53;;;;;;;;;;10361595;28;20222;-70
2021/01/31 06:56:35;;;;;;;12.33;7.03;;;;;;;;;;10331094;28;20290;-70
2021/01/31 07:01:46;;;;;;;14.37;7.83;;;;;;;;;;10313655;28;20630;-71
2021/01/31 07:07:02;;;;;;;13.87;7.27;;;;;;;;;;10364802;28;20211;-71
2021/01/31 07:12:08;;;;;;;13.63;7.33;;;;;;;;;;10364235;28;20303;-71
2021/01/31 07:17:19;;;;;;;13.13;7.10;;;;;;;;;;10362194;28;20205;-70
2021/01/31 07:22:24;;;;;;;12.83;6.57;;;;;;;;;;10357204;28;20233;-71
2021/01/31 07:27:29;;;;;;;11.37;6.07;;;;;;;;;;10356830;28;20302;-69
2021/01/31 07:32:38;;;;;;;12.67;7.27;;;;;;;;;;10364186;28;20209;-71
2021/01/31 07:37:41;;;;;;;12.40;6.97;;;;;;;;;;10357915;28;20488;-72
2021/01/31 07:42:44;;;;;;;10.50;5.70;;;;;;;;;;10375302;28;20214;-72
2021/01/31 07:47:48;;;;;;;12.53;6.80;;;;;;;;;;10384317;28;20403;-69
2021/01/31 07:52:52;;;;;;;13.10;6.87;;;;;;;;;;10372323;28;20640;-70
2021/01/31 07:58:05;;;;;;;11.63;6.73;;;;;;;;;;10371126;28;20278;-71
2021/01/31 08:03:17;;;;;;;12.30;7.23;;;;;;;;;;10377536;28;20221;-70
2021/01/31 08:08:34;;;;;;;14.10;7.50;;;;;;;;;;10377802;28;20210;-70
2021/01/31 08:13:38;;;;;;;12.03;6.73;;;;;;;;;;10373947;28;20245;-70
2021/01/31 08:18:55;;;;;;;13.50;7.23;;;;;;;;;;10369056;28;20235;-70
2021/01/31 08:23:57;;;;;;;12.33;6.83;;;;;;;;;;10366067;28;20333;-71
2021/01/31 08:28:59;;;;;;;13.27;7.63;;;;;;;;;;10367387;28;20197;-72
2021/01/31 08:34:02;;;;;;;12.30;7.13;;;;;;;;;;10350661;28;20218;-70
2021/01/31 08:39:24;;;;;;;12.93;7.33;;;;;;;;;;10369387;28;20226;-71
2021/01/31 08:44:40;;;;;;;12.83;7.03;;;;;;;;;;10359360;28;20249;-71
2021/01/31 08:49:42;;;;;;;13.37;7.40;;;;;;;;;;10356896;28;20759;-71
2021/01/31 08:54:57;;;;;;;13.93;7.63;;;;;;;;;;10336342;28;20313;-71
2021/01/31 09:00:04;;;;;;;12.63;7.30;;;;;;;;;;10347009;28;20191;-70
2021/01/31 09:05:11;;;;;;;14.63;8.10;;;;;;;;;;10362994;28;20255;-70
2021/01/31 09:10:15;;;;;;;15.03;8.37;;;;;;;;;;10362073;28;20527;-69
2021/01/31 09:15:21;;;;;;;14.43;8.27;;;;;;;;;;10357199;28;20238;-69
2021/01/31 09:20:25;;;;;;;15.07;9.00;;;;;;;;;;10362560;28;20253;-69
2021/01/31 09:25:32;;;;;;;15.10;8.37;;;;;;;;;;10367654;28;20229;-71
2021/01/31 09:30:34;;;;;;;17.07;8.90;;;;;;;;;;10346099;28;20217;-70
2021/01/31 09:35:37;;;;;;;14.73;8.83;;;;;;;;;;10371029;28;20282;-71
2021/01/31 09:40:42;;;;;;;15.00;9.07;;;;;;;;;;10384121;28;20341;-70
2021/01/31 09:45:45;;;;;;;14.47;8.73;;;;;;;;;;10359147;28;20690;-70
2021/01/31 09:50:51;;;;;;;16.37;9.77;;;;;;;;;;10352720;28;20272;-69
2021/01/31 09:55:53;;;;;;;17.23;9.33;;;;;;;;;;10366501;28;20241;-70
2021/01/31 10:00:55;;;;;;;15.60;9.87;;;;;;;;;;10371432;28;20968;-70
2021/01/31 10:06:07;;;;;;;16.60;9.83;;;;;;;;;;10372092;28;20206;-71
2021/01/31 10:11:27;;;;;;;17.67;9.73;;;;;;;;;;10345204;28;20219;-70
2021/01/31 10:16:30;;;;;;;17.40;10.47;;;;;;;;;;10353332;28;20210;-70
2021/01/31 10:21:33;;;;;;;16.03;9.67;;;;;;;;;;10365050;28;20225;-69
2021/01/31 10:26:35;;;;;;;17.40;9.83;;;;;;;;;;10366939;28;20207;-69
2021/01/31 10:31:39;;;;;;;17.90;9.77;;;;;;;;;;10358140;28;20218;-70
2021/01/31 10:36:41;;;;;;;17.33;10.10;;;;;;;;;;10363130;28;20651;-70
2021/01/31 10:41:43;;;;;;;16.23;9.90;;;;;;;;;;10343745;28;20241;-71
2021/01/31 10:46:46;;;;;;;17.47;10.37;;;;;;;;;;10358738;28;20214;-68
2021/01/31 10:51:54;;;;;;;17.93;10.30;;;;;;;;;;10373462;28;20210;-71
2021/01/31 10:57:12;;;;;;;17.10;10.33;;;;;;;;;;10362195;28;20289;-70
2021/01/31 11:02:19;;;;;;;17.20;10.77;;;;;;;;;;10385751;28;20222;-71
2021/01/31 11:07:45;;;;;;;17.37;10.80;;;;;;;;;;10383525;28;20225;-70
2021/01/31 11:12:55;;;;;;;17.10;10.23;;;;;;;;;;10378277;28;20222;-70
2021/01/31 11:18:08;;;;;;;19.37;10.83;;;;;;;;;;10378544;28;20194;-70
2021/01/31 11:23:22;;;;;;;19.03;11.83;;;;;;;;;;10377786;28;20252;-69
2021/01/31 11:28:35;;;;;;;18.80;11.13;;;;;;;;;;10386481;28;20210;-71
2021/01/31 11:33:54;;;;;;;18.80;11.03;;;;;;;;;;10387640;28;20233;-71
2021/01/31 11:39:27;;;;;;;17.53;10.63;;;;;;;;;;10387216;28;20261;-69
2021/01/31 11:44:35;;;;;;;19.67;11.83;;;;;;;;;;10384344;28;20206;-69
2021/01/31 11:49:55;;;;;;;20.50;12.23;;;;;;;;;;10368413;28;20202;-72
2021/01/31 11:55:11;;;;;;;20.70;11.10;;;;;;;;;;10400316;28;20222;-70
2021/01/31 12:00:18;;;;;;;20.10;11.97;;;;;;;;;;10367365;28;20263;-71
2021/01/31 12:05:23;;;;;;;18.60;11.50;;;;;;;;;;10370759;28;20214;-73
2021/01/31 12:10:27;;;;;;;21.67;12.50;;;;;;;;;;10357105;28;20194;-71
2021/01/31 12:15:30;;;;;;;20.67;12.23;;;;;;;;;;10350434;28;20202;-72
2021/01/31 12:20:32;;;;;;;20.70;11.17;;;;;;;;;;10353592;28;20206;-72
2021/01/31 12:25:35;;;;;;;19.53;10.40;;;;;;;;;;10394203;28;20236;-72
2021/01/31 12:30:37;;;;;;;21.47;12.63;;;;;;;;;;10359187;28;20194;-71
2021/01/31 12:35:40;;;;;;;19.73;12.10;;;;;;;;;;10359363;28;20195;-73
2021/01/31 12:40:41;;;;;;;22.27;12.07;;;;;;;;;;10352546;28;20321;-72
2021/01/31 12:45:43;;;;;;;18.63;10.00;;;;;;;;;;10343860;28;20266;-73
2021/01/31 12:50:45;;;;;;;20.53;12.10;;;;;;;;;;10351158;28;20299;-72
2021/01/31 12:55:47;;;;;;;16.53;8.47;;;;;;;;;;10364173;28;20205;-72
2021/01/31 13:00:49;;;;;;;13.80;6.80;;;;;;;;;;10363834;28;20253;-71
2021/01/31 13:05:52;;;;;;;15.67;7.37;;;;;;;;;;10364506;28;20284;-72
2021/01/31 13:10:54;;;;;;;20.27;11.90;;;;;;;;;;10366032;28;20256;-71
2021/01/31 13:15:56;;;;;;;20.60;12.23;;;;;;;;;;10361028;28;20238;-72
2021/01/31 13:20:58;;;;;;;22.37;12.53;;;;;;;;;;10366213;28;20730;-72
2021/01/31 13:26:00;;;;;;;19.63;11.13;;;;;;;;;;10370528;28;20218;-71
2021/01/31 13:31:01;;;;;;;19.37;11.97;;;;;;;;;;10364956;28;20314;-71
2021/01/31 13:36:04;;;;;;;19.37;11.70;;;;;;;;;;10362249;28;20187;-70
2021/01/31 13:41:06;;;;;;;21.73;12.20;;;;;;;;;;10364474;28;20329;-71
2021/01/31 13:46:07;;;;;;;21.43;12.27;;;;;;;;;;10348979;28;20219;-70
2021/01/31 13:51:10;;;;;;;23.33;14.03;;;;;;;;;;10362288;28;20226;-72
2021/01/31 13:56:12;;;;;;;21.63;12.13;;;;;;;;;;10358530;28;20191;-70
2021/01/31 14:01:14;;;;;;;19.90;12.53;;;;;;;;;;10371828;28;20245;-72
2021/01/31 14:06:17;;;;;;;24.03;13.57;;;;;;;;;;10370383;28;20241;-73
2021/01/31 14:11:18;;;;;;;19.00;10.50;;;;;;;;;;10371228;28;20236;-71
2021/01/31 14:16:20;;;;;;;16.67;10.33;;;;;;;;;;10362210;28;20304;-72
2021/01/31 14:21:27;;;;;;;19.07;9.63;;;;;;;;;;10362214;28;20280;-71
2021/01/31 14:26:30;;;;;;;22.03;12.83;;;;;;;;;;10344598;28;20344;-71
2021/01/31 14:31:32;;;;;;;19.87;10.93;;;;;;;;;;10369528;28;20218;-71
2021/01/31 14:36:54;;;;;;;19.50;10.37;;;;;;;;;;10343968;28;20623;-71
2021/01/31 14:41:57;;;;;;;23.87;13.13;;;;;;;;;;10361290;28;20614;-71
2021/01/31 14:46:59;;;;;;;22.27;12.83;;;;;;;;;;10364766;28;20269;-72
2021/01/31 14:52:01;;;;;;;21.00;12.07;;;;;;;;;;10360764;28;20301;-71
2021/01/31 14:57:04;;;;;;;22.43;12.40;;;;;;;;;;10367815;28;20190;-72
2021/01/31 15:02:07;;;;;;;21.40;12.43;;;;;;;;;;10349416;28;20214;-72
2021/01/31 15:07:11;;;;;;;22.30;13.17;;;;;;;;;;10356930;28;20202;-72
2021/01/31 15:12:12;;;;;;;20.23;12.53;;;;;;;;;;10360518;28;20210;-72
2021/01/31 15:17:14;;;;;;;21.70;12.70;;;;;;;;;;10345020;28;20337;-72
2021/01/31 15:22:17;;;;;;;20.63;12.63;;;;;;;;;;10361148;28;20235;-72
2021/01/31 15:27:19;;;;;;;22.77;12.90;;;;;;;;;;10371044;28;20293;-73
2021/01/31 15:38:12;;;;;;;19.10;9.97;;;;;;;;;;10362304;28;20209;-73
2021/01/31 15:43:14;;;;;;;25.30;13.00;;;;;;;;;;10365329;28;20619;-72
2021/01/31 15:48:16;;;;;;;21.80;12.50;;;;;;;;;;10350242;28;20237;-71
2021/01/31 15:53:19;;;;;;;20.17;11.33;;;;;;;;;;10344029;28;20247;-71
2021/01/31 15:58:22;;;;;;;22.17;11.43;;;;;;;;;;10363191;28;20207;-71
2021/01/31 16:03:23;;;;;;;21.37;11.37;;;;;;;;;;10356692;28;20693;-72
2021/01/31 16:08:26;;;;;;;13.37;6.20;;;;;;;;;;10343041;28;20293;-72
2021/01/31 16:13:28;;;;;;;22.63;12.30;;;;;;;;;;10370135;28;20214;-74
2021/01/31 16:18:29;;;;;;;22.90;12.27;;;;;;;;;;10377961;28;20543;-71
2021/01/31 16:23:32;;;;;;;17.10;8.03;;;;;;;;;;10347551;28;20258;-72
2021/01/31 16:28:34;;;;;;;22.70;11.93;;;;;;;;;;10365248;28;20214;-71
2021/01/31 16:33:35;;;;;;;26.70;13.70;;;;;;;;;;10365228;28;20314;-71
2021/01/31 16:38:38;;;;;;;15.87;7.23;;;;;;;;;;10364805;28;20202;-71
2021/01/31 16:43:40;;;;;;;22.90;10.67;;;;;;;;;;10364502;28;20607;-72
2021/01/31 16:48:41;;;;;;;29.90;14.73;;;;;;;;;;10368652;28;20357;-73
2021/01/31 16:53:44;;;;;;;30.67;17.30;;;;;;;;;;10348445;28;20817;-73
2021/01/31 16:58:46;;;;;;;31.30;16.33;;;;;;;;;;10368859;28;20237;-72
2021/01/31 17:03:47;;;;;;;35.47;18.10;;;;;;;;;;10345948;28;20277;-71
2021/01/31 17:08:50;;;;;;;31.80;17.63;;;;;;;;;;10354698;28;20222;-73
2021/01/31 17:13:52;;;;;;;25.40;12.07;;;;;;;;;;10374563;28;20559;-73
2021/01/31 17:18:53;;;;;;;25.70;12.53;;;;;;;;;;10367689;28;20599;-73
2021/01/31 17:23:56;;;;;;;25.83;12.67;;;;;;;;;;10362704;28;20313;-73
2021/01/31 17:28:57;;;;;;;27.20;14.93;;;;;;;;;;10347574;28;20300;-72
2021/01/31 17:34:03;;;;;;;31.17;16.17;;;;;;;;;;10346493;28;20214;-72
2021/01/31 17:39:06;;;;;;;31.83;17.40;;;;;;;;;;10343118;28;20194;-73
2021/01/31 17:44:08;;;;;;;19.20;8.30;;;;;;;;;;10357881;28;20309;-72
2021/01/31 17:49:10;;;;;;;32.10;17.40;;;;;;;;;;10362820;28;20234;-72
2021/01/31 17:54:13;;;;;;;33.80;19.23;;;;;;;;;;10361468;28;20713;-71
2021/01/31 17:59:14;;;;;;;31.70;17.77;;;;;;;;;;10363685;28;20261;-71
2021/01/31 18:04:16;;;;;;;30.63;16.27;;;;;;;;;;10384824;28;20222;-70
2021/01/31 18:09:18;;;;;;;30.27;17.13;;;;;;;;;;10368371;28;20253;-71
2021/01/31 18:14:20;;;;;;;29.93;16.97;;;;;;;;;;10366549;28;20718;-72
2021/01/31 18:19:22;;;;;;;33.17;16.60;;;;;;;;;;10348552;28;20678;-72
2021/01/31 18:24:24;;;;;;;31.77;16.37;;;;;;;;;;10364262;28;20225;-72
2021/01/31 18:29:26;;;;;;;31.50;15.93;;;;;;;;;;10364848;28;20210;-72
2021/01/31 18:34:27;;;;;;;33.43;17.87;;;;;;;;;;10359704;28;20538;-71
2021/01/31 18:39:30;;;;;;;29.93;15.20;;;;;;;;;;10357001;28;20246;-72
2021/01/31 18:44:31;;;;;;;30.33;15.10;;;;;;;;;;10360337;28;20654;-72
2021/01/31 18:49:33;;;;;;;24.33;12.33;;;;;;;;;;10361010;28;20884;-72
2021/01/31 18:54:35;;;;;;;34.07;17.37;;;;;;;;;;10358441;28;20222;-72
2021/01/31 18:59:37;;;;;;;30.00;15.83;;;;;;;;;;10359076;28;20202;-71
2021/01/31 19:04:39;;;;;;;35.87;19.17;;;;;;;;;;10360704;28;20278;-72
2021/01/31 19:09:42;;;;;;;25.17;12.13;;;;;;;;;;10363849;28;20190;-72
2021/01/31 19:14:44;;;;;;;33.20;17.23;;;;;;;;;;10357809;28;20592;-73
2021/01/31 19:19:45;;;;;;;19.30;8.23;;;;;;;;;;10361888;28;20302;-71
2021/01/31 19:24:48;;;;;;;30.10;12.30;;;;;;;;;;10350677;28;20224;-70
2021/01/31 19:29:50;;;;;;;20.83;10.23;;;;;;;;;;10345136;28;20194;-70
2021/01/31 19:34:51;;;;;;;28.90;13.90;;;;;;;;;;10353943;28;20245;-71
2021/01/31 19:39:54;;;;;;;17.43;6.87;;;;;;;;;;10342717;28;20245;-72
2021/01/31 19:44:55;;;;;;;28.93;13.17;;;;;;;;;;10354436;28;20675;-72
2021/01/31 19:49:57;;;;;;;34.53;17.40;;;;;;;;;;10359760;28;20201;-72
2021/01/31 19:55:00;;;;;;;21.70;10.20;;;;;;;;;;10360859;28;20217;-72
2021/01/31 20:00:06;;;;;;;21.93;10.53;;;;;;;;;;10357213;28;20222;-71
2021/01/31 20:05:08;;;;;;;29.57;14.43;;;;;;;;;;10361433;28;20214;-72
2021/01/31 20:10:12;;;;;;;21.20;10.50;;;;;;;;;;10359364;28;20265;-71
2021/01/31 20:15:14;;;;;;;28.60;14.57;;;;;;;;;;10359430;28;20214;-72
2021/01/31 20:20:16;;;;;;;21.90;9.93;;;;;;;;;;10325428;28;20214;-72
2021/01/31 20:25:19;;;;;;;25.70;11.83;;;;;;;;;;10335411;28;20237;-70
2021/01/31 20:30:21;;;;;;;34.60;16.90;;;;;;;;;;10340372;28;20658;-73
2021/01/31 20:35:24;;;;;;;32.37;17.23;;;;;;;;;;10339878;28;20378;-72
2021/01/31 20:40:27;;;;;;;34.43;16.10;;;;;;;;;;10340339;28;20542;-73
2021/01/31 20:45:32;;;;;;;14.83;7.60;;;;;;;;;;10350615;28;20218;-72
2021/01/31 20:50:34;;;;;;;28.20;14.07;;;;;;;;;;10353334;28;20233;-72
2021/01/31 20:55:37;;;;;;;17.53;8.97;;;;;;;;;;10354886;28;20666;-72
2021/01/31 21:00:40;;;;;;;23.43;11.67;;;;;;;;;;10350041;28;20287;-72
2021/01/31 21:05:42;;;;;;;23.17;10.20;;;;;;;;;;10365801;28;20219;-71
2021/01/31 21:10:45;;;;;;;30.00;16.47;;;;;;;;;;10367555;28;20269;-71
2021/01/31 21:15:46;;;;;;;29.77;15.90;;;;;;;;;;10367046;28;20326;-72
2021/01/31 21:20:48;;;;;;;29.83;15.00;;;;;;;;;;10370485;28;20225;-71
2021/01/31 21:25:50;;;;;;;29.70;14.73;;;;;;;;;;10366057;28;20893;-72
2021/01/31 21:30:52;;;;;;;22.37;10.20;;;;;;;;;;10372540;28;20218;-70
2021/01/31 21:35:54;;;;;;;30.37;15.97;;;;;;;;;;10378032;28;20215;-72
2021/01/31 21:40:56;;;;;;;28.40;14.23;;;;;;;;;;10366983;28;20230;-73
2021/01/31 21:45:58;;;;;;;26.37;12.27;;;;;;;;;;10365199;28;20214;-72
2021/01/31 21:50:59;;;;;;;30.60;14.33;;;;;;;;;;10370072;28;20211;-71
2021/01/31 21:56:03;;;;;;;33.67;16.23;;;;;;;;;;10377887;28;20546;-72
2021/01/31 22:01:05;;;;;;;26.13;12.27;;;;;;;;;;10369967;28;20246;-72
2021/01/31 22:06:06;;;;;;;33.33;16.63;;;;;;;;;;10364791;28;20209;-72
2021/01/31 22:11:10;;;;;;;31.23;14.93;;;;;;;;;;10367404;28;20284;-72
2021/01/31 22:16:11;;;;;;;22.50;10.90;;;;;;;;;;10361225;28;20221;-73
2021/01/31 22:21:16;;;;;;;31.10;15.40;;;;;;;;;;10367016;28;20211;-72
2021/01/31 22:26:18;;;;;;;26.10;13.33;;;;;;;;;;10367944;28;20242;-72
2021/01/31 22:31:19;;;;;;;32.83;16.30;;;;;;;;;;10366379;28;20217;-71
2021/01/31 22:36:21;;;;;;;28.17;13.83;;;;;;;;;;10365270;28;20234;-72
2021/01/31 22:41:23;;;;;;;31.50;15.30;;;;;;;;;;10342034;28;20842;-72
2021/01/31 22:46:25;;;;;;;29.17;15.87;;;;;;;;;;10364733;28;20253;-73
2021/01/31 22:51:27;;;;;;;27.37;13.33;;;;;;;;;;10362374;28;20214;-73
2021/01/31 22:56:30;;;;;;;29.97;14.93;;;;;;;;;;10363413;28;20791;-73
2021/01/31 23:01:35;;;;;;;26.97;13.73;;;;;;;;;;10362392;28;20218;-74
2021/01/31 23:06:37;;;;;;;29.00;15.10;;;;;;;;;;10361010;28;20199;-74
2021/01/31 23:11:39;;;;;;;28.40;13.63;;;;;;;;;;10349722;28;20214;-73
2021/01/31 23:16:41;;;;;;;28.83;14.40;;;;;;;;;;10367144;28;20249;-72
2021/01/31 23:21:43;;;;;;;31.50;16.57;;;;;;;;;;10366789;28;20694;-74
2021/01/31 23:26:45;;;;;;;26.97;13.10;;;;;;;;;;10358961;28;20214;-73
2021/01/31 23:31:47;;;;;;;32.67;16.00;;;;;;;;;;10364273;28;20229;-73
2021/01/31 23:36:49;;;;;;;29.23;13.73;;;;;;;;;;10364336;28;20631;-72
2021/01/31 23:41:51;;;;;;;28.70;15.37;;;;;;;;;;10358991;28;20218;-73
2021/01/31 23:46:52;;;;;;;16.30;7.70;;;;;;;;;;10360548;28;20289;-73
2021/01/31 23:51:54;;;;;;;18.97;8.40;;;;;;;;;;10359009;28;20214;-72
2021/01/31 23:56:57;;;;;;;33.13;15.30;;;;;;;;;;10362677;28;20658;-73
